Weather at Frankfurt am Main Airport

Public forecast

Using degrees Celsius for public forecast. Weather courtesy of forecast.io.

Current aviation weather report (METAR) for Frankfurt am Main Airport

Retrieved 2020/10/31 01:20 UTC (0 seconds ago):

EDDF 310120Z 20005KT 9999 FEW019 BKN035 11/09 Q1025 NOSIG

Aviation forecast (TAF) for Frankfurt am Main Airport

Retrieved 2020-10-31 00:27 UTC (34 minutes ago):

TAF TAF EDDF 302300Z 3100/0106 19005KT 9999 BKN035 PROB30 TEMPO 3105/3108 3000 BR BKN008 BECMG 3108/3111 SCT035 BECMG 3123/0102 BKN030